createdAt,value
2018-05-27T00:01:15.039Z,0
2018-05-27T00:02:15.603Z,0
2018-05-27T00:03:16.168Z,0
2018-05-27T00:04:16.734Z,0
2018-05-27T00:05:17.303Z,0
2018-05-27T00:06:17.862Z,0
2018-05-27T00:07:18.402Z,0
2018-05-27T00:08:18.950Z,0
2018-05-27T00:09:19.506Z,0
2018-05-27T00:10:20.061Z,0
2018-05-27T00:11:20.610Z,0
2018-05-27T00:12:21.170Z,0
2018-05-27T00:13:21.720Z,0
2018-05-27T00:14:22.272Z,0
2018-05-27T00:15:22.821Z,0
2018-05-27T00:16:23.370Z,0
2018-05-27T00:17:23.924Z,0
2018-05-27T00:18:24.477Z,0
2018-05-27T00:19:25.031Z,0
2018-05-27T00:20:25.580Z,0
2018-05-27T00:21:26.132Z,0
2018-05-27T00:22:26.688Z,0
2018-05-27T00:23:27.238Z,0
2018-05-27T00:24:27.789Z,0
2018-05-27T00:25:28.343Z,0
2018-05-27T00:26:28.894Z,0
2018-05-27T00:27:29.454Z,0
2018-05-27T00:28:30.003Z,0
2018-05-27T00:29:30.556Z,0
2018-05-27T00:30:31.112Z,0
2018-05-27T00:31:31.661Z,0
2018-05-27T00:32:32.216Z,0
2018-05-27T00:33:32.769Z,0
2018-05-27T00:34:33.320Z,0
2018-05-27T00:35:33.874Z,0
2018-05-27T00:36:34.428Z,0
2018-05-27T00:37:34.979Z,0
2018-05-27T00:38:35.536Z,0
2018-05-27T00:39:36.083Z,0
2018-05-27T00:40:36.639Z,0
2018-05-27T00:41:37.188Z,0
2018-05-27T00:42:37.743Z,0
2018-05-27T00:43:38.292Z,0
2018-05-27T00:44:38.843Z,0
2018-05-27T00:45:39.396Z,0
2018-05-27T00:46:39.954Z,0
2018-05-27T00:47:40.505Z,0
2018-05-27T00:48:41.060Z,0
2018-05-27T00:49:41.614Z,0
2018-05-27T00:50:42.165Z,0
2018-05-27T00:51:42.716Z,0
2018-05-27T00:52:43.275Z,0
2018-05-27T00:53:43.817Z,0
2018-05-27T00:54:44.376Z,0
2018-05-27T00:55:44.927Z,0
2018-05-27T00:56:45.482Z,0
2018-05-27T00:57:46.037Z,0
2018-05-27T00:58:46.595Z,0
2018-05-27T00:59:47.140Z,0
2018-05-27T01:00:47.693Z,0
2018-05-27T01:01:48.252Z,0
2018-05-27T01:02:48.792Z,0
2018-05-27T01:03:49.344Z,0
2018-05-27T01:04:49.901Z,0
2018-05-27T01:05:50.452Z,0
2018-05-27T01:06:51.010Z,0
2018-05-27T01:07:51.563Z,0
2018-05-27T01:08:52.114Z,0
2018-05-27T01:09:52.670Z,0
2018-05-27T01:10:53.223Z,0
2018-05-27T01:11:53.775Z,0
2018-05-27T01:12:54.323Z,0
2018-05-27T01:13:54.875Z,0
2018-05-27T01:14:55.430Z,0
2018-05-27T01:15:55.984Z,0
2018-05-27T01:16:56.536Z,0
2018-05-27T01:17:57.092Z,0
2018-05-27T01:18:57.639Z,0
2018-05-27T01:19:58.188Z,0
2018-05-27T01:20:58.743Z,0
2018-05-27T01:21:59.296Z,0
2018-05-27T01:22:59.849Z,0
2018-05-27T01:24:00.398Z,0
2018-05-27T01:25:00.954Z,0
2018-05-27T01:26:01.507Z,0
2018-05-27T01:27:02.059Z,0
2018-05-27T01:28:02.607Z,0
2018-05-27T01:29:03.166Z,0
2018-05-27T01:30:03.715Z,0
2018-05-27T01:31:04.262Z,0
2018-05-27T01:32:04.808Z,0
2018-05-27T01:33:05.360Z,0
2018-05-27T01:34:05.912Z,0
2018-05-27T01:35:06.479Z,0
2018-05-27T01:36:07.024Z,0
2018-05-27T01:37:07.576Z,0
2018-05-27T01:38:08.127Z,0
2018-05-27T01:39:08.678Z,0
2018-05-27T01:40:09.236Z,0
2018-05-27T01:41:09.783Z,0
2018-05-27T01:42:10.337Z,0
2018-05-27T01:43:10.881Z,0
2018-05-27T01:44:11.434Z,0
2018-05-27T01:45:11.988Z,0
2018-05-27T01:46:12.542Z,0
2018-05-27T01:47:13.094Z,0
2018-05-27T01:48:13.640Z,0
2018-05-27T01:49:14.193Z,0
2018-05-27T01:50:14.740Z,0
2018-05-27T01:51:15.293Z,0
2018-05-27T01:52:15.841Z,0
2018-05-27T01:53:16.398Z,0
2018-05-27T01:54:16.951Z,0
2018-05-27T01:55:17.512Z,0
2018-05-27T01:56:18.129Z,0
2018-05-27T01:57:18.672Z,0
2018-05-27T01:58:19.242Z,0
2018-05-27T01:59:19.768Z,0
2018-05-27T02:00:20.325Z,0
2018-05-27T02:01:20.874Z,0
2018-05-27T02:02:21.431Z,0
2018-05-27T02:03:21.981Z,0
2018-05-27T02:04:22.535Z,0
2018-05-27T02:05:23.087Z,0
2018-05-27T02:06:23.634Z,0
2018-05-27T02:07:24.185Z,0
2018-05-27T02:08:24.735Z,0
2018-05-27T02:09:25.319Z,0
2018-05-27T02:10:25.837Z,0
2018-05-27T02:11:26.382Z,0
2018-05-27T02:12:26.945Z,0
2018-05-27T02:13:27.488Z,0
2018-05-27T02:14:28.042Z,0
2018-05-27T02:15:28.597Z,0
2018-05-27T02:16:29.150Z,0
2018-05-27T02:17:29.715Z,0
2018-05-27T02:18:30.268Z,0
2018-05-27T02:19:30.829Z,0
2018-05-27T02:20:31.380Z,0
2018-05-27T02:21:31.929Z,0
2018-05-27T02:22:32.482Z,0
2018-05-27T02:23:33.037Z,0
2018-05-27T02:24:33.588Z,0
2018-05-27T02:25:34.140Z,0
2018-05-27T02:26:34.690Z,0
2018-05-27T02:27:35.241Z,0
2018-05-27T02:28:35.795Z,0
2018-05-27T02:29:36.347Z,0
2018-05-27T02:30:36.899Z,0
2018-05-27T02:31:37.453Z,0
2018-05-27T02:32:38.000Z,0
2018-05-27T02:33:38.564Z,0
2018-05-27T02:34:39.095Z,0
2018-05-27T02:35:39.641Z,0
2018-05-27T02:36:40.194Z,0
2018-05-27T02:37:40.750Z,0
2018-05-27T02:38:41.299Z,0
2018-05-27T02:39:41.854Z,0
2018-05-27T02:40:42.413Z,0
2018-05-27T02:41:42.959Z,0
2018-05-27T02:42:43.506Z,0
2018-05-27T02:43:44.058Z,0
2018-05-27T02:44:44.609Z,0
2018-05-27T02:45:45.159Z,0
2018-05-27T02:46:45.709Z,4
2018-05-27T02:47:46.265Z,4
2018-05-27T02:48:46.816Z,4
2018-05-27T02:49:47.372Z,0
2018-05-27T02:50:47.937Z,0
2018-05-27T02:51:48.475Z,4
2018-05-27T02:52:49.019Z,4
2018-05-27T02:53:49.570Z,4
2018-05-27T02:54:50.124Z,4
2018-05-27T02:55:50.675Z,8
2018-05-27T02:56:51.225Z,8
2018-05-27T02:57:51.775Z,8
2018-05-27T02:58:52.327Z,12
2018-05-27T02:59:52.885Z,12
2018-05-27T03:00:53.440Z,12
2018-05-27T03:01:53.992Z,16
2018-05-27T03:02:54.547Z,16
2018-05-27T03:03:55.092Z,20
2018-05-27T03:04:55.648Z,24
2018-05-27T03:05:56.199Z,24
2018-05-27T03:06:56.745Z,28
2018-05-27T03:07:57.306Z,36
2018-05-27T03:08:57.854Z,40
2018-05-27T03:09:58.415Z,44
2018-05-27T03:10:58.985Z,52
2018-05-27T03:11:59.512Z,56
2018-05-27T03:13:00.059Z,64
2018-05-27T03:14:00.607Z,72
2018-05-27T03:15:01.161Z,84
2018-05-27T03:16:01.721Z,92
2018-05-27T03:17:02.272Z,108
2018-05-27T03:18:02.827Z,116
2018-05-27T03:19:03.380Z,136
2018-05-27T03:20:03.933Z,148
2018-05-27T03:21:04.482Z,168
2018-05-27T03:22:05.033Z,184
2018-05-27T03:23:05.581Z,204
2018-05-27T03:24:06.137Z,220
2018-05-27T03:25:06.693Z,248
2018-05-27T03:26:07.245Z,268
2018-05-27T03:27:07.805Z,292
2018-05-27T03:28:08.349Z,316
2018-05-27T03:29:08.902Z,344
2018-05-27T03:30:09.458Z,372
2018-05-27T03:31:10.010Z,396
2018-05-27T03:32:10.562Z,428
2018-05-27T03:33:11.112Z,460
2018-05-27T03:34:11.679Z,496
2018-05-27T03:35:12.222Z,532
2018-05-27T03:36:12.774Z,564
2018-05-27T03:37:13.330Z,604
2018-05-27T03:38:13.883Z,640
2018-05-27T03:39:14.438Z,684
2018-05-27T03:40:14.986Z,728
2018-05-27T03:41:15.536Z,772
2018-05-27T03:42:16.094Z,816
2018-05-27T03:43:16.641Z,864
2018-05-27T03:44:17.191Z,908
2018-05-27T03:45:17.745Z,956
2018-05-27T03:46:18.305Z,1004
2018-05-27T03:47:18.865Z,1060
2018-05-27T03:48:19.418Z,1120
2018-05-27T03:49:19.975Z,1180
2018-05-27T03:50:20.534Z,1252
2018-05-27T03:51:21.090Z,1328
2018-05-27T03:52:21.644Z,1404
2018-05-27T03:53:22.195Z,1488
2018-05-27T03:54:22.757Z,1576
2018-05-27T03:55:23.306Z,1668
2018-05-27T03:56:23.862Z,1760
2018-05-27T03:57:24.416Z,1852
2018-05-27T03:58:24.976Z,1956
2018-05-27T03:59:25.528Z,2068
2018-05-27T04:00:26.085Z,2184
2018-05-27T04:01:26.640Z,2284
2018-05-27T04:02:27.198Z,2380
2018-05-27T04:03:27.753Z,2468
2018-05-27T04:04:28.304Z,2556
2018-05-27T04:05:28.855Z,2648
2018-05-27T04:06:29.410Z,2784
2018-05-27T04:07:29.975Z,2928
2018-05-27T04:08:30.526Z,3056
2018-05-27T04:09:31.079Z,3148
2018-05-27T04:10:31.632Z,3232
2018-05-27T04:11:32.186Z,3312
2018-05-27T04:12:32.740Z,3404
2018-05-27T04:13:33.294Z,3524
2018-05-27T04:14:33.856Z,3660
2018-05-27T04:15:34.415Z,3796
2018-05-27T04:16:34.971Z,3948
2018-05-27T04:17:35.530Z,4136
2018-05-27T04:18:36.091Z,4320
2018-05-27T04:19:36.647Z,4496
2018-05-27T04:20:37.210Z,4644
2018-05-27T04:21:37.767Z,4776
2018-05-27T04:22:38.326Z,4864
2018-05-27T04:23:38.883Z,4916
2018-05-27T04:24:39.441Z,4940
2018-05-27T04:25:39.996Z,4964
2018-05-27T04:26:40.553Z,5000
2018-05-27T04:27:41.113Z,5068
2018-05-27T04:28:41.702Z,5144
2018-05-27T04:29:42.227Z,5244
2018-05-27T04:30:42.788Z,5364
2018-05-27T04:31:43.338Z,5492
2018-05-27T04:32:43.894Z,5628
2018-05-27T04:33:44.457Z,5748
2018-05-27T04:34:45.019Z,5872
2018-05-27T04:35:45.591Z,6012
2018-05-27T04:36:46.129Z,6144
2018-05-27T04:37:46.689Z,6236
2018-05-27T04:38:47.251Z,6300
2018-05-27T04:39:47.806Z,6368
2018-05-27T04:40:48.358Z,6460
2018-05-27T04:41:48.921Z,6580
2018-05-27T04:42:49.482Z,6716
2018-05-27T04:43:50.041Z,6864
2018-05-27T04:44:50.600Z,6996
2018-05-27T04:45:51.158Z,7204
2018-05-27T04:46:51.716Z,7392
2018-05-27T04:47:52.276Z,7420
2018-05-27T04:48:52.836Z,7548
2018-05-27T04:49:53.392Z,7860
2018-05-27T04:50:53.953Z,8612
2018-05-27T04:51:54.506Z,9268
2018-05-27T04:52:55.075Z,9140
2018-05-27T04:53:55.629Z,8692
2018-05-27T04:54:56.180Z,8532
2018-05-27T04:55:56.743Z,8600
2018-05-27T04:56:57.301Z,8816
2018-05-27T04:57:57.864Z,8916
2018-05-27T04:58:58.457Z,9128
2018-05-27T04:59:58.981Z,9492
2018-05-27T05:00:59.553Z,9856
2018-05-27T05:02:00.111Z,9932
2018-05-27T05:03:00.681Z,9916
2018-05-27T05:04:01.240Z,9632
2018-05-27T05:05:01.802Z,9180
2018-05-27T05:06:02.361Z,9220
2018-05-27T05:07:02.922Z,9348
2018-05-27T05:08:03.485Z,9624
2018-05-27T05:09:04.050Z,10004
2018-05-27T05:10:04.620Z,10672
2018-05-27T05:11:05.184Z,11128
2018-05-27T05:12:05.765Z,11444
2018-05-27T05:13:06.344Z,11952
2018-05-27T05:14:07.077Z,11656
2018-05-27T05:15:07.612Z,11304
2018-05-27T05:16:08.173Z,11872
2018-05-27T05:17:08.749Z,12512
2018-05-27T05:18:09.302Z,13420
2018-05-27T05:19:09.880Z,14084
2018-05-27T05:20:10.442Z,13524
2018-05-27T05:21:11.003Z,13256
2018-05-27T05:22:11.565Z,13244
2018-05-27T05:23:12.125Z,13320
2018-05-27T05:24:12.682Z,13368
2018-05-27T05:25:13.248Z,13332
2018-05-27T05:26:13.808Z,13368
2018-05-27T05:27:14.370Z,13008
2018-05-27T05:28:14.947Z,12728
2018-05-27T05:29:15.517Z,12400
2018-05-27T05:30:16.067Z,12056
2018-05-27T05:31:16.636Z,11796
2018-05-27T05:32:17.194Z,11652
2018-05-27T05:33:17.760Z,11620
2018-05-27T05:34:18.326Z,11680
2018-05-27T05:35:18.888Z,11852
2018-05-27T05:36:19.492Z,12032
2018-05-27T05:37:20.013Z,12172
2018-05-27T05:38:20.575Z,12312
2018-05-27T05:39:21.140Z,12392
2018-05-27T05:40:21.696Z,12396
2018-05-27T05:41:22.259Z,12388
2018-05-27T05:42:22.816Z,12376
2018-05-27T05:43:23.376Z,12464
2018-05-27T05:44:23.929Z,12544
2018-05-27T05:45:24.491Z,12644
2018-05-27T05:46:25.050Z,12784
2018-05-27T05:47:25.614Z,12936
2018-05-27T05:48:26.174Z,13228
2018-05-27T05:49:26.727Z,13608
2018-05-27T05:50:27.284Z,14128
2018-05-27T05:51:27.846Z,14648
2018-05-27T05:52:28.409Z,15044
2018-05-27T05:53:28.973Z,15276
2018-05-27T05:54:29.641Z,15332
2018-05-27T05:55:30.204Z,15328
2018-05-27T05:56:30.763Z,15336
2018-05-27T05:57:31.357Z,15424
2018-05-27T05:58:31.886Z,15684
2018-05-27T05:59:32.446Z,16004
2018-05-27T06:00:33.014Z,16316
2018-05-27T06:01:33.572Z,16572
2018-05-27T06:02:34.132Z,16768
2018-05-27T06:03:34.700Z,16848
2018-05-27T06:04:35.256Z,16908
2018-05-27T06:05:35.818Z,18528
2018-05-27T06:06:36.387Z,16692
2018-05-27T06:07:36.953Z,16460
2018-05-27T06:08:37.516Z,16380
2018-05-27T06:09:38.081Z,16352
2018-05-27T06:10:38.638Z,16360
2018-05-27T06:11:39.203Z,16356
2018-05-27T06:12:39.766Z,16396
2018-05-27T06:13:40.324Z,16776
2018-05-27T06:14:40.883Z,25216
2018-05-27T06:15:41.446Z,21856
2018-05-27T06:16:42.016Z,22656
2018-05-27T06:17:42.570Z,22496
2018-05-27T06:18:43.124Z,20128
2018-05-27T06:19:43.728Z,24672
2018-05-27T06:20:44.255Z,29312
2018-05-27T06:21:44.820Z,30016
2018-05-27T06:22:45.388Z,30944
2018-05-27T06:23:45.956Z,30688
2018-05-27T06:24:46.532Z,29376
2018-05-27T06:25:47.173Z,30176
2018-05-27T06:26:47.665Z,32352
2018-05-27T06:27:48.232Z,33888
2018-05-27T06:28:48.801Z,34688
2018-05-27T06:29:49.380Z,30240
2018-05-27T06:30:49.945Z,34304
2018-05-27T06:31:50.516Z,33568
2018-05-27T06:32:51.081Z,33120
2018-05-27T06:33:51.651Z,33344
2018-05-27T06:34:52.217Z,33568
2018-05-27T06:35:52.792Z,35936
2018-05-27T06:36:53.356Z,38208
2018-05-27T06:37:53.930Z,38624
2018-05-27T06:38:54.494Z,39200
2018-05-27T06:39:55.068Z,39840
2018-05-27T06:40:55.630Z,40000
2018-05-27T06:41:56.204Z,40832
2018-05-27T06:42:56.787Z,42304
2018-05-27T06:43:57.353Z,43552
2018-05-27T06:44:57.927Z,44896
2018-05-27T06:45:58.497Z,44864
2018-05-27T06:46:59.074Z,45280
2018-05-27T06:47:59.644Z,45440
2018-05-27T06:49:00.213Z,45440
2018-05-27T06:50:00.777Z,46688
2018-05-27T06:51:01.355Z,46752
2018-05-27T06:52:01.928Z,43392
2018-05-27T06:53:02.498Z,41984
2018-05-27T06:54:03.077Z,47392
2018-05-27T06:55:03.643Z,48512
2018-05-27T06:56:04.216Z,26464
2018-05-27T06:57:04.789Z,40128
2018-05-27T06:58:05.360Z,47040
2018-05-27T06:59:05.932Z,47072
2018-05-27T07:00:06.502Z,47520
2018-05-27T07:01:07.077Z,46304
2018-05-27T07:02:07.649Z,45440
2018-05-27T07:03:08.223Z,47584
2018-05-27T07:04:08.796Z,45440
2018-05-27T07:05:09.375Z,46400
2018-05-27T07:06:09.949Z,47360
2018-05-27T07:07:10.522Z,49088
2018-05-27T07:08:11.091Z,48448
2018-05-27T07:09:11.661Z,47936
2018-05-27T07:10:12.251Z,48864
2018-05-27T07:11:12.812Z,47616
2018-05-27T07:12:13.386Z,48928
2018-05-27T07:13:13.958Z,41216
2018-05-27T07:14:14.531Z,43200
2018-05-27T07:15:15.104Z,34048
2018-05-27T07:16:15.675Z,36320
2018-05-27T07:17:16.246Z,38496
2018-05-27T07:18:16.822Z,33472
2018-05-27T07:19:17.392Z,34720
2018-05-27T07:20:17.962Z,35616
2018-05-27T07:21:18.531Z,37856
2018-05-27T07:22:19.101Z,38880
2018-05-27T07:23:19.671Z,41792
2018-05-27T07:24:20.243Z,46688
2018-05-27T07:25:20.810Z,48704
2018-05-27T07:26:21.380Z,46336
2018-05-27T07:27:21.952Z,45088
2018-05-27T07:28:22.524Z,42112
2018-05-27T07:29:23.091Z,43488
2018-05-27T07:30:23.662Z,50016
2018-05-27T07:31:24.279Z,53664
2018-05-27T07:32:24.807Z,54624
2018-05-27T07:33:25.388Z,59520
2018-05-27T07:34:25.995Z,59456
2018-05-27T07:35:26.519Z,58752
2018-05-27T07:36:27.092Z,58880
2018-05-27T07:37:27.666Z,57984
2018-05-27T07:38:28.240Z,57056
2018-05-27T07:39:28.812Z,59168
2018-05-27T07:40:29.388Z,61312
2018-05-27T07:41:29.963Z,62208
2018-05-27T07:42:30.539Z,63520
2018-05-27T07:43:31.117Z,63744
2018-05-27T07:44:31.687Z,60576
2018-05-27T07:45:32.256Z,59520
2018-05-27T07:46:32.829Z,54400
2018-05-27T07:47:33.405Z,54944
2018-05-27T07:48:33.981Z,55424
2018-05-27T07:49:34.555Z,56832
2018-05-27T07:50:35.131Z,57792
2018-05-27T07:51:35.699Z,60128
2018-05-27T07:52:36.292Z,59200
2018-05-27T07:53:36.838Z,60096
2018-05-27T07:54:37.419Z,59808
2018-05-27T07:55:37.991Z,58784
2018-05-27T07:56:38.567Z,59776
2018-05-27T07:57:39.140Z,62656
2018-05-27T07:58:39.714Z,65696
2018-05-27T07:59:40.285Z,72576
2018-05-27T08:00:40.858Z,73376
2018-05-27T08:01:41.425Z,75456
2018-05-27T08:02:41.997Z,76960
2018-05-27T08:03:42.576Z,76512
2018-05-27T08:04:43.137Z,78464
2018-05-27T08:05:43.717Z,82784
2018-05-27T08:06:44.289Z,85696
2018-05-27T08:07:44.860Z,52512
2018-05-27T08:08:45.438Z,54752
2018-05-27T08:09:46.120Z,33504
2018-05-27T08:10:46.693Z,29120
2018-05-27T08:11:47.261Z,28352
2018-05-27T08:12:47.831Z,27584
2018-05-27T08:13:48.394Z,27680
2018-05-27T08:14:48.978Z,27840
2018-05-27T08:15:49.548Z,28320
2018-05-27T08:16:50.118Z,29472
2018-05-27T08:17:50.695Z,44416
2018-05-27T08:18:51.263Z,40192
2018-05-27T08:19:51.885Z,75008
2018-05-27T08:20:52.407Z,79136
2018-05-27T08:21:52.976Z,75776
2018-05-27T08:22:53.544Z,58272
2018-05-27T08:23:54.115Z,61792
2018-05-27T08:24:54.685Z,45280
2018-05-27T08:25:55.258Z,59584
2018-05-27T08:26:55.846Z,83104
2018-05-27T08:27:56.403Z,47776
2018-05-27T08:28:56.977Z,57568
2018-05-27T08:29:57.545Z,73344
2018-05-27T08:30:58.121Z,83712
2018-05-27T08:31:58.694Z,72448
2018-05-27T08:32:59.264Z,50784
2018-05-27T08:33:59.831Z,56576
2018-05-27T08:35:00.418Z,55680
2018-05-27T08:36:01.021Z,60160
2018-05-27T08:37:01.553Z,87040
2018-05-27T08:38:02.128Z,90912
2018-05-27T08:39:02.699Z,88640
2018-05-27T08:40:03.277Z,88512
2018-05-27T08:41:03.838Z,91392
2018-05-27T08:42:04.413Z,93248
2018-05-27T08:43:04.996Z,95040
2018-05-27T08:44:05.566Z,62784
2018-05-27T08:45:06.133Z,53248
2018-05-27T08:46:06.710Z,51584
2018-05-27T08:47:07.292Z,79008
2018-05-27T08:48:07.860Z,78400
2018-05-27T08:49:08.433Z,62496
2018-05-27T08:50:09.004Z,97920
2018-05-27T08:51:09.577Z,62752
2018-05-27T08:52:10.151Z,91008
2018-05-27T08:53:10.727Z,59264
2018-05-27T08:54:11.305Z,50016
2018-05-27T08:55:11.894Z,53248
2018-05-27T08:56:12.449Z,52352
2018-05-27T08:57:13.033Z,51552
2018-05-27T08:58:13.591Z,59104
2018-05-27T08:59:14.167Z,62592
2018-05-27T09:00:14.741Z,84896
2018-05-27T09:01:15.393Z,52960
2018-05-27T09:02:15.882Z,61312
2018-05-27T09:03:16.458Z,50592
2018-05-27T09:04:17.029Z,76384
2018-05-27T09:05:17.603Z,54880
2018-05-27T09:06:18.182Z,54880
2018-05-27T09:07:18.748Z,73632
2018-05-27T09:08:19.321Z,51840
2018-05-27T09:09:19.888Z,70976
2018-05-27T09:10:20.455Z,106112
2018-05-27T09:11:21.020Z,92736
2018-05-27T09:12:21.593Z,64128
2018-05-27T09:13:22.162Z,72640
2018-05-27T09:14:22.737Z,116640
2018-05-27T09:15:23.349Z,111552
2018-05-27T09:16:23.872Z,114432
2018-05-27T09:17:24.451Z,107680
2018-05-27T09:18:25.018Z,90208
2018-05-27T09:19:25.804Z,98208
2018-05-27T09:20:26.374Z,52384
2018-05-27T09:21:26.948Z,86816
2018-05-27T09:22:27.520Z,85472
2018-05-27T09:23:28.093Z,66976
2018-05-27T09:24:28.659Z,42240
2018-05-27T09:25:29.235Z,45632
2018-05-27T09:26:29.812Z,53472
2018-05-27T09:27:30.377Z,43072
2018-05-27T09:28:30.949Z,83648
2018-05-27T09:29:31.519Z,48736
2018-05-27T09:30:32.093Z,39712
2018-05-27T09:31:32.667Z,34144
2018-05-27T09:32:33.236Z,32608
2018-05-27T09:33:33.806Z,31872
2018-05-27T09:34:34.368Z,32544
2018-05-27T09:35:34.940Z,32384
2018-05-27T09:36:35.513Z,42944
2018-05-27T09:37:36.087Z,61248
2018-05-27T09:38:36.660Z,96064
2018-05-27T09:39:37.227Z,48480
2018-05-27T09:40:37.800Z,71456
2018-05-27T09:41:38.368Z,45216
2018-05-27T09:42:38.940Z,53408
2018-05-27T09:43:39.505Z,61056
2018-05-27T09:44:40.079Z,71520
2018-05-27T09:45:40.649Z,68544
2018-05-27T09:46:41.216Z,77056
2018-05-27T09:47:41.793Z,112800
2018-05-27T09:48:42.362Z,100672
2018-05-27T09:49:42.937Z,109664
2018-05-27T09:50:43.505Z,74048
2018-05-27T09:51:44.080Z,68576
2018-05-27T09:52:44.644Z,66784
2018-05-27T09:53:45.212Z,61600
2018-05-27T09:54:45.790Z,67072
2018-05-27T09:55:46.365Z,117504
2018-05-27T09:56:46.935Z,75840
2018-05-27T09:57:47.556Z,79616
2018-05-27T09:58:48.080Z,130592
2018-05-27T09:59:48.651Z,143264
2018-05-27T10:00:49.229Z,143072
2018-05-27T10:01:49.801Z,64448
2018-05-27T10:02:50.376Z,85824
2018-05-27T10:03:50.949Z,60928
2018-05-27T10:04:51.520Z,58080
2018-05-27T10:05:52.094Z,57504
2018-05-27T10:06:52.665Z,55616
2018-05-27T10:07:53.241Z,56480
2018-05-27T10:08:53.808Z,56928
2018-05-27T10:09:54.380Z,58176
2018-05-27T10:10:54.952Z,59008
2018-05-27T10:11:55.532Z,104608
2018-05-27T10:12:56.102Z,111744
2018-05-27T10:13:56.674Z,83360
2018-05-27T10:14:57.242Z,115328
2018-05-27T10:15:57.815Z,107872
2018-05-27T10:16:58.397Z,146304
2018-05-27T10:17:58.969Z,78560
2018-05-27T10:18:59.566Z,68640
2018-05-27T10:20:00.113Z,44928
2018-05-27T10:21:00.681Z,36928
2018-05-27T10:22:01.257Z,31808
2018-05-27T10:23:01.824Z,26720
2018-05-27T10:24:02.413Z,24480
2018-05-27T10:25:02.973Z,23328
2018-05-27T10:26:03.599Z,22432
2018-05-27T10:27:04.103Z,21632
2018-05-27T10:28:04.670Z,21024
2018-05-27T10:29:05.447Z,20384
2018-05-27T10:30:06.027Z,19840
2018-05-27T10:31:06.594Z,19776
2018-05-27T10:32:07.160Z,20000
2018-05-27T10:33:07.730Z,19904
2018-05-27T10:34:08.299Z,19168
2018-05-27T10:35:08.868Z,17804
2018-05-27T10:36:09.434Z,16660
2018-05-27T10:37:10.003Z,15804
2018-05-27T10:38:10.574Z,15316
2018-05-27T10:39:11.191Z,15000
2018-05-27T10:40:11.707Z,14792
2018-05-27T10:41:12.273Z,14672
2018-05-27T10:42:12.841Z,14572
2018-05-27T10:43:13.408Z,14448
2018-05-27T10:44:13.980Z,14360
2018-05-27T10:45:14.543Z,14304
2018-05-27T10:46:15.114Z,14252
2018-05-27T10:47:15.691Z,13880
2018-05-27T10:48:16.255Z,13192
2018-05-27T10:49:16.821Z,12280
2018-05-27T10:50:17.389Z,11244
2018-05-27T10:51:17.952Z,10224
2018-05-27T10:52:18.518Z,9440
2018-05-27T10:53:19.082Z,8960
2018-05-27T10:54:19.644Z,8652
2018-05-27T10:55:20.207Z,8480
2018-05-27T10:56:20.773Z,8380
2018-05-27T10:57:21.335Z,8340
2018-05-27T10:58:21.899Z,8368
2018-05-27T10:59:22.462Z,8456
2018-05-27T11:00:23.027Z,8588
2018-05-27T11:01:23.589Z,8716
2018-05-27T11:02:24.152Z,8808
2018-05-27T11:03:24.717Z,8872
2018-05-27T11:04:25.284Z,8932
2018-05-27T11:05:25.840Z,8984
2018-05-27T11:06:26.405Z,9016
2018-05-27T11:07:26.965Z,9080
2018-05-27T11:08:27.527Z,9104
2018-05-27T11:09:28.090Z,9072
2018-05-27T11:10:28.665Z,8880
2018-05-27T11:11:29.222Z,8628
2018-05-27T11:12:29.793Z,8336
2018-05-27T11:13:30.362Z,8120
2018-05-27T11:14:30.925Z,7992
2018-05-27T11:15:31.482Z,7888
2018-05-27T11:16:32.044Z,7756
2018-05-27T11:17:32.719Z,7628
2018-05-27T11:18:33.285Z,7516
2018-05-27T11:19:33.846Z,7440
2018-05-27T11:20:34.420Z,7360
2018-05-27T11:21:35.005Z,7280
2018-05-27T11:22:35.552Z,7192
2018-05-27T11:23:36.119Z,7096
2018-05-27T11:24:36.682Z,6988
2018-05-27T11:25:37.248Z,6892
2018-05-27T11:26:37.812Z,6832
2018-05-27T11:27:38.379Z,6780
2018-05-27T11:28:38.949Z,6712
2018-05-27T11:29:39.512Z,6636
2018-05-27T11:30:40.076Z,6548
2018-05-27T11:31:40.635Z,6428
2018-05-27T11:32:41.199Z,6256
2018-05-27T11:33:41.761Z,6068
2018-05-27T11:34:42.329Z,5900
2018-05-27T11:35:42.892Z,5784
2018-05-27T11:36:43.448Z,5700
2018-05-27T11:37:44.011Z,5628
2018-05-27T11:38:44.564Z,5556
2018-05-27T11:39:45.127Z,5472
2018-05-27T11:40:45.699Z,5328
2018-05-27T11:41:46.257Z,5124
2018-05-27T11:42:46.823Z,4868
2018-05-27T11:43:47.384Z,4640
2018-05-27T11:44:47.950Z,4492
2018-05-27T11:45:48.513Z,4392
2018-05-27T11:46:49.075Z,4328
2018-05-27T11:47:49.636Z,4280
2018-05-27T11:48:50.197Z,4320
2018-05-27T11:49:50.760Z,4280
2018-05-27T11:50:51.320Z,4192
2018-05-27T11:51:51.888Z,4108
2018-05-27T11:52:52.444Z,3984
2018-05-27T11:53:53.009Z,3872
2018-05-27T11:54:53.568Z,3824
2018-05-27T11:55:54.135Z,3744
2018-05-27T11:56:54.696Z,3648
2018-05-27T11:57:55.253Z,3508
2018-05-27T11:58:55.811Z,3480
2018-05-27T11:59:56.371Z,3448
2018-05-27T12:00:56.928Z,3416
2018-05-27T12:01:57.496Z,3384
2018-05-27T12:02:58.059Z,3356
2018-05-27T12:03:58.619Z,3340
2018-05-27T12:04:59.179Z,3332
2018-05-27T12:05:59.735Z,3348
2018-05-27T12:07:00.296Z,3380
2018-05-27T12:08:00.857Z,3452
2018-05-27T12:09:01.458Z,3600
2018-05-27T12:10:01.981Z,3696
2018-05-27T12:11:02.540Z,3792
2018-05-27T12:12:03.106Z,3876
2018-05-27T12:13:03.661Z,4092
2018-05-27T12:14:04.227Z,4156
2018-05-27T12:15:04.785Z,4212
2018-05-27T12:16:05.357Z,4252
2018-05-27T12:17:05.910Z,4280
2018-05-27T12:18:06.463Z,4268
2018-05-27T12:19:07.043Z,4304
2018-05-27T12:20:07.600Z,4336
2018-05-27T12:21:08.161Z,4344
2018-05-27T12:22:08.725Z,4360
2018-05-27T12:23:09.286Z,4356
2018-05-27T12:24:09.871Z,4408
2018-05-27T12:25:10.413Z,4428
2018-05-27T12:26:10.978Z,4492
2018-05-27T12:27:11.536Z,4612
2018-05-27T12:28:12.096Z,4764
2018-05-27T12:29:12.660Z,4960
2018-05-27T12:30:13.220Z,5176
2018-05-27T12:31:13.773Z,5412
2018-05-27T12:32:14.333Z,5712
2018-05-27T12:33:14.893Z,6056
2018-05-27T12:34:15.457Z,6460
2018-05-27T12:35:16.016Z,6916
2018-05-27T12:36:16.576Z,7436
2018-05-27T12:37:17.134Z,8008
2018-05-27T12:38:17.694Z,8608
2018-05-27T12:39:18.255Z,9216
2018-05-27T12:40:18.815Z,9912
2018-05-27T12:41:19.370Z,10732
2018-05-27T12:42:19.925Z,11552
2018-05-27T12:43:20.484Z,12340
2018-05-27T12:44:21.047Z,13036
2018-05-27T12:45:21.603Z,13616
2018-05-27T12:46:22.165Z,14048
2018-05-27T12:47:22.719Z,14500
2018-05-27T12:48:23.277Z,15016
2018-05-27T12:49:23.837Z,15688
2018-05-27T12:50:24.396Z,16580
2018-05-27T12:51:24.952Z,17648
2018-05-27T12:52:25.511Z,19072
2018-05-27T12:53:26.070Z,20448
2018-05-27T12:54:26.632Z,21344
2018-05-27T12:55:27.189Z,22592
2018-05-27T12:56:27.751Z,24096
2018-05-27T12:57:28.313Z,25824
2018-05-27T12:58:28.876Z,27744
2018-05-27T12:59:29.440Z,29408
2018-05-27T13:00:29.995Z,31168
2018-05-27T13:01:30.556Z,32864
2018-05-27T13:02:31.124Z,34368
2018-05-27T13:03:31.680Z,35648
2018-05-27T13:04:32.237Z,36544
2018-05-27T13:05:32.798Z,37120
2018-05-27T13:06:33.360Z,37312
2018-05-27T13:07:33.918Z,37248
2018-05-27T13:08:34.486Z,36960
2018-05-27T13:09:35.043Z,36704
2018-05-27T13:10:35.610Z,36576
2018-05-27T13:11:36.172Z,36608
2018-05-27T13:12:36.734Z,37568
2018-05-27T13:13:37.304Z,38496
2018-05-27T13:14:37.870Z,42496
2018-05-27T13:15:38.427Z,46368
2018-05-27T13:16:39.091Z,50560
2018-05-27T13:17:39.556Z,49536
2018-05-27T13:18:40.127Z,54080
2018-05-27T13:19:40.688Z,53664
2018-05-27T13:20:41.256Z,50944
2018-05-27T13:21:41.819Z,56160
2018-05-27T13:22:42.389Z,72064
2018-05-27T13:23:43.001Z,73120
2018-05-27T13:24:43.523Z,60352
2018-05-27T13:25:44.084Z,56960
2018-05-27T13:26:44.656Z,60736
2018-05-27T13:27:45.213Z,63744
2018-05-27T13:28:45.792Z,73728
2018-05-27T13:29:46.350Z,81024
2018-05-27T13:30:46.922Z,59008
2018-05-27T13:31:47.487Z,56480
2018-05-27T13:32:48.059Z,54144